Rachel, Nevada Weather observations

Data are for observation ending at time listed.
 Day   Time    Ave.   Ave.  Ave.  Vector   Max.   Stn.    Total    Solar   Ave.  
  of    of     Air    Rel.  Wind   Wind    Wind   Baro.  Precip.   Rad.    Soil  
Year   Day     Temp.  Hum.  Speed  Dir.    Gust   Pres.                    Temp. 
2017   (PST)    F      %     mph   deg.    mph     mb.     in.     W/m2     F   
------------------------------------------------------------------------------
 321    7:30   50.4    60    8.6   209     11.2   846.0    0.00      38    50.6
 321    7:40   50.2    61   10.5   194     13.7   846.2    0.00      48    50.7
 321    7:50   50.8    60    7.4   201     10.1   846.2    0.00      48    50.7
 321    8:00   51.9    56    8.0   227     12.6   846.2    0.00      45    50.8
 321    8:10   52.4    55   10.3   216     18.3   846.1    0.00      59    51.0
 321    8:20   52.8    54   13.5   214     19.6   846.2    0.00      48    51.1
 321    8:30   53.3    52   13.6   214     20.8   846.3    0.00      88    51.3
 321    8:40   53.7    52   11.2   221     18.8   846.5    0.00     118    51.5
 321    8:50   55.1    50   10.6   222     19.1   846.7    0.00     286    51.8
 321    9:00   56.4    48   12.5   227     24.3   846.9    0.00     303    52.4
 321    9:10   56.8    47   17.0   223     27.0   847.0    0.00     319    52.9
 321    9:20   56.3    49   19.3   223     29.7   847.1    0.00     330    53.2
 321    9:30   56.7    48   18.2   226     27.5   847.3    0.00     348    53.3
 321    9:40   56.5    49   20.6   225     28.6   847.4    0.00     363    53.5
 321    9:50   57.1    48   18.9   227     28.1   847.5    0.00     377    53.7
 321   10:00   57.4    47   19.7   228     28.6   847.4    0.00     391    54.0
 321   10:10   57.7    46   21.2   233     32.1   847.2    0.00     406    54.2
 321   10:20   58.2    45   18.4   232     31.0   847.1    0.00     417    54.5
 321   10:30   59.1    43   16.6   229     28.3   847.0    0.00     419    54.7
 321   10:40   59.3    43   17.0   230     26.4   846.9    0.00     427    55.0
 321   10:50   60.0    41   15.2   235     25.4   846.9    0.00     433    55.1
 321   11:00   59.7    42   18.2   224     26.5   846.9    0.00     452    55.4
 321   11:10   60.2    41   15.9   227     27.1   847.0    0.00     473    55.5
 321   11:20   60.4    42   14.9   226     24.0   847.1    0.00     499    55.8
 321   11:30   61.3    40   15.5   238     26.5   846.9    0.00     449    55.9
 321   11:40   60.5    41   17.8   232     26.5   846.9    0.00     276    56.0
 321   11:50   61.2    39   17.0   242     26.1   846.6    0.00     321    56.1
 321   12:00   62.4    35   17.2   257     27.3   846.9    0.00     368    56.4
 321   12:10   61.2    35   15.6   264     26.3   846.9    0.00     110    56.4
 321   12:20   62.3    30   18.6   269     34.3   846.7    0.00     401    56.4
 321   12:30   62.8    28   22.5   271     32.5   846.6    0.00     347    56.6
 321   12:40   63.2    28   23.1   271     35.4   846.7    0.00     309    57.0
 321   12:50   63.2    28   21.8   270     34.2   846.8    0.00     346    57.2
 321   13:00   62.0    30   23.2   275     35.8   846.8    0.00     155    57.2
 321   13:10   61.4    31   19.5   292     31.1   847.0    0.00     109    57.2
 321   13:20   60.5    32   21.8   311     28.9   847.0    0.00     172    57.0
 321   13:30   61.0    32   21.4   306     28.6   847.0    0.00     347    57.1
 321   13:40   61.0    31   22.6   319     29.0   847.2    0.00     313    57.2
 321   13:50   61.4    30   21.9   328     30.7   847.6    0.00     383    57.4
 321   14:00   61.2    29   21.8   326     29.7   847.8    0.00     339    57.4
 321   14:10   61.1    28   24.2   325     31.7   848.1    0.00     330    57.6
 321   14:20   60.6    28   16.9   334     24.9   848.5    0.00     314    57.6
 321   14:30   60.0    27   19.8   320     29.5   848.6    0.00     107    57.4
 321   14:40   58.1    27   16.6   329     22.6   848.8    0.00      69    57.0
 321   14:50   58.0    26   18.5   324     26.6   849.0    0.00      74    56.6
 321   15:00   57.1    25   22.3   346     31.6   849.1    0.00     135    56.4
 321   15:10   56.9    24   22.6   344     30.0   849.2    0.00     178    56.1
 321   15:20   55.9    24   23.6   358     31.3   849.6    0.00     156    55.9
 321   15:30   54.9    24   22.5   354     31.4   849.7    0.00     129    55.4
 321   15:40   54.2    23   21.2   351     29.6   850.0    0.00     115    55.3
 321   15:50   53.7    21   22.0   343     28.9   850.1    0.00      96    55.0
 321   16:00   52.9    20   23.1   341     31.4   850.0    0.00      70    54.7
 321   16:10   52.0    20   22.7   344     31.7   850.2    0.00      44    54.2
 321   16:20   51.3    19   20.9   342     30.7   850.3    0.00      27    53.7
 321   16:30   50.6    18   18.3   344     25.2   850.8    0.00      12    53.5
 321   16:40   49.8    16   16.6   332     23.2   851.2    0.00       5    53.1
 321   16:50   49.1    18   16.2   336     21.0   851.7    0.00       3    52.7
 321   17:00   47.7    23   13.6   358     20.2   852.0    0.00       1    52.3
 321   17:10   46.4    26   15.3    10     20.5   852.2    0.00       0    51.7
 321   17:20   45.7    27   15.1    13     19.7   852.4    0.00       0    51.3
 321   17:30   45.0    27   12.5    16     17.8   852.7    0.00       0    51.0
 321   17:40   43.9    28   10.8    15     13.7   852.7    0.00       0    50.3
 321   17:50   42.3    29    9.1    38     10.9   852.9    0.00       0    50.1
 321   18:00   42.0    31   10.1    26     14.5   853.2    0.00       0    49.7
 321   18:10   42.0    31   11.4   353     14.9   853.1    0.00       0    49.4
 321   18:20   42.0    31   14.8   348     18.2   852.9    0.00       0    49.2
 321   18:30   41.9    31   10.0    10     16.1   853.4    0.00       0    48.8
 321   18:40   41.5    31   11.0     3     16.5   853.6    0.00       0    48.5
 321   18:50   40.3    31    4.9   359     10.2   853.9    0.00       0    48.4
 321   19:00   39.3    31    3.5   354     10.1   854.1    0.00       0    48.3
 321   19:10   41.2    28    9.5   353     19.1   853.7    0.00       0    48.1
 321   19:20   40.6    28    5.1     4     14.7   854.2    0.00       0    47.8
 321   19:30   38.5    30    4.3    40     11.5   854.5    0.00       0    47.7
 321   19:40   38.4    29   10.7     5     14.3   854.5    0.00       0    47.2
 321   19:50   37.6    30   11.4    21     14.2   854.8    0.00       0    46.6
 321   20:00   36.6    31   10.5    17     13.7   854.8    0.00       0    46.1
 321   20:10   37.3    32    8.8    31     15.2   855.0    0.00       0    45.8
 321   20:20   38.0    32   10.4    31     17.0   855.1    0.00       0    45.7
 321   20:30   36.9    32    2.4    13      9.1   855.5    0.00       0    45.7
 321   20:40   35.4    35    6.9    36     11.0   855.7    0.00       0    45.5
 321   20:50   34.9    38    6.3    60      9.8   855.8    0.00       0    45.1
 321   21:00   35.1    39    6.1    45      8.4   855.9    0.00       0    44.9
 321   21:10   34.2    41    3.0    61      7.2   856.0    0.00       0    44.8
 321   21:20   33.9    43    2.8    63      5.8   856.0    0.00       0    44.5
 321   21:30   34.1    45    6.9    72     10.0   856.2    0.00       0    44.1
 321   21:40   33.5    47    5.8    65      8.5   856.3    0.00       0    44.2
 321   21:50   33.1    49    5.1    52      6.6   856.4    0.00       0    44.0
 321   22:00   33.0    48    5.4    57      8.1   856.3    0.00       0    43.7
 321   22:10   32.8    48    5.3    47     10.3   856.3    0.00       0    43.5
 321   22:20   32.9    48    8.8    53     13.4   856.2    0.00       0    43.4
 321   22:30   32.4    49    9.9    52     11.8   856.4    0.00       0    42.9
 321   22:40   32.2    49    8.3    37     12.3   856.4    0.00       0    42.6
 321   22:50   31.8    50    5.4    36      9.4   856.7    0.00       0    42.6
 321   23:00   31.8    50    3.4   338      5.3   856.8    0.00       0    42.5
 321   23:10   30.8    50    3.5   282      6.6   856.7    0.00       0    42.5
 321   23:20   29.4    51    6.5   264      9.8   856.8    0.00       0    42.2
 321   23:30   28.8    52    5.3   236      7.6   857.0    0.00       0    42.0
 321   23:40   29.2    52    5.5   242      7.0   856.9    0.00       0    42.0
 321   23:50   27.3    55    6.5   222      8.2   856.6    0.00       0    41.7
 322    0:00   27.5    54    4.9   207      6.5   856.6    0.00       0    41.6
 322    0:10   27.0    56    5.5   226      7.3   856.6    0.00       0    41.4
 322    0:20   26.8    56    4.7   232      6.0   856.5    0.00       0    41.3
 322    0:30   26.0    57    4.3   253      5.6   856.4    0.00       0    41.1
 322    0:40   25.9    57    3.6   226      5.1   856.4    0.00       0    40.9
 322    0:50   26.6    56    1.9   214      4.0   856.3    0.00       0    40.7
 322    1:00   27.4    56    3.5   250      5.8   856.2    0.00       0    40.7
 322    1:10   27.2    55    3.7   203      5.7   856.0    0.00       0    40.5
 322    1:20   25.6    56    3.0   264      6.8   856.2    0.00       0    40.1
 322    1:30   23.4    60    1.4   281      3.3   856.1    0.00       0    39.9
 322    1:40   25.7    57    0.8    72      2.3   855.8    0.00       0    39.3
 322    1:50   23.6    59    1.7   190      3.4   855.9    0.00       0    39.2
 322    2:00   24.6    59    0.4   294      3.0   856.2    0.00       0    39.0
 322    2:10   22.5    57    5.0   310      7.7   856.4    0.00       0    38.8
 322    2:20   16.0    66    6.5   287      8.6   856.2    0.00       0    38.1
 322    2:30   17.3    66    3.9   252      6.5   856.9    0.00       0    37.8
 322    2:40   16.7    67    2.3   240      4.9   856.2    0.00       0    37.4
 322    2:50   17.7    68    4.0   228      6.1   855.2    0.00       0    37.3
 322    3:00   20.3    66    3.6   259      5.6   856.3    0.00       0    37.5
 322    3:10   20.4    64    2.0   275      3.7   856.6    0.00       0    37.4
 322    3:20   20.2    66    2.5   283      3.6   856.6    0.00       0    37.3
 322    3:30   19.9    66    2.0   251      4.4   856.3    0.00       0    37.1
 322    3:40   20.0    65    1.8   239      4.5   856.3    0.00       0    36.8
 322    3:50   19.5    65    1.4   284      3.7   856.5    0.00       0    36.4
 322    4:00   18.9    67    1.4   272      4.0   856.6    0.00       0    36.3
 322    4:10   19.7    64    1.4   263      3.7   856.7    0.00       0    36.1
 322    4:20   19.4    65    2.5   272      4.8   856.8    0.00       0    36.0
 322    4:30   20.0    65    3.7   294      5.6   856.7    0.00       0    36.0
 322    4:40   19.4    65    3.2   276      4.5   856.8    0.00       0    35.9
 322    4:50   18.8    65    3.6   238      5.5   856.9    0.00       0    35.8
 322    5:00   20.1    64    4.4   262      5.8   857.0    0.00       0    35.8
 322    5:10   21.3    61    3.9   288      8.0   857.1    0.00       0    35.6
 322    5:20   20.5    62    3.0    44      5.2   857.3    0.00       0    35.2
 322    5:30   16.1    68    2.9   346      6.9   857.3    0.00       0    34.9
 322    5:40   16.7    70    1.6    23      2.8   857.3    0.00       0    34.5
 322    5:50   15.7    69    1.0    73      3.7   857.2    0.00       0    34.0
 322    6:00   15.7    69    1.0   161      2.6   857.4    0.00       0    34.2
 322    6:10   14.9    68    1.1   185      2.9   857.5    0.00       0    34.1
 322    6:20   14.8    69    1.3   165      4.4   857.4    0.00       0    33.8
 322    6:30   14.6    70    0.4   114      2.5   857.1    0.00       3    33.5
 322    6:40   13.9    70    0.1    34      1.3   856.8    0.00       4    33.4
 322    6:50   13.0    70    0.9     3      2.6   857.1    0.00       7    33.2
 322    7:00   13.6    72    1.9   138      3.8   857.5    0.00      15    32.8
 322    7:10   18.4    68    0.9   213      3.7   857.6    0.00      63    33.6
 322    7:20   18.9    63    1.4   168      3.8   858.1    0.00      93    34.4

Return to St. George, Utah graphs page.


Western Regional Climate Center,wrcc@dri.edu